CheckWX is a tool to help pilots better visualize weather data.  It is not intended as a substitute for an official pre-flight weather briefing.

00:58:33 UTC

KEQA METAR
El Dorado / Captain Jack Thomas Memorial Airport
El Dorado, Kansas, USA
Current

24 mins ago

KEQA 240035Z AUTO 14017KT 10SM SCT011 12/09 A2996 RMK AO2
Observed
Mar-24 @ 00:35 UTC
Wind
  • 140° at 17 KTS
Visibility
10 SM
Flight Rules
VFR
Cloud Levels
  • Scattered at 1,100' AGL
Temperature
12°C / 54°F
Dewpoint
C / 48°F
Humidity
82%
Altimeter
29.96" Hg
Pressure
1014.52 hPa
Previous

44 mins ago

KEQA 240015Z AUTO 14015KT 10SM CLR 12/09 A2996 RMK AO2
Observed
Mar-24 @ 00:15 UTC
Wind
  • 140° at 15 KTS
Visibility
10 SM
Flight Rules
VFR
Cloud Levels
  • Clear skies
Temperature
12°C / 54°F
Dewpoint
C / 48°F
Humidity
82%
Altimeter
29.96" Hg
Pressure
1014.52 hPa
Previous

1 hour ago

KEQA 232355Z AUTO 13014G18KT 10SM SCT029 13/09 A2995 RMK AO2
Observed
Mar-23 @ 23:55 UTC
Wind
  • 130° at 14 KTS
  • Gusting to 18 KTS
Visibility
10 SM
Flight Rules
VFR
Cloud Levels
  • Scattered at 2,900' AGL
Temperature
13°C / 55°F
Dewpoint
C / 48°F
Humidity
77%
Altimeter
29.95" Hg
Pressure
1014.22 hPa